sensor_id;sensor_type;location;lat;lon;timestamp;P1;durP1;ratioP1;P2;durP2;ratioP2
26113;SDS011;13966;48.828;9.064;2023-06-14T00:01:54;6.57;;;4.47;;
26113;SDS011;13966;48.828;9.064;2023-06-14T00:04:20;7.55;;;4.85;;
26113;SDS011;13966;48.828;9.064;2023-06-14T00:06:47;6.53;;;4.97;;
26113;SDS011;13966;48.828;9.064;2023-06-14T00:09:15;7.25;;;5.03;;
26113;SDS011;13966;48.828;9.064;2023-06-14T00:11:42;8.25;;;4.55;;
26113;SDS011;13966;48.828;9.064;2023-06-14T00:14:08;8.93;;;4.63;;
26113;SDS011;13966;48.828;9.064;2023-06-14T00:16:35;8.90;;;4.85;;
26113;SDS011;13966;48.828;9.064;2023-06-14T00:19:02;9.25;;;5.20;;
26113;SDS011;13966;48.828;9.064;2023-06-14T00:21:29;7.57;;;4.65;;
26113;SDS011;13966;48.828;9.064;2023-06-14T00:23:55;11.00;;;4.45;;
26113;SDS011;13966;48.828;9.064;2023-06-14T00:26:21;6.50;;;4.70;;
26113;SDS011;13966;48.828;9.064;2023-06-14T00:28:48;7.47;;;4.82;;
26113;SDS011;13966;48.828;9.064;2023-06-14T00:31:14;8.70;;;5.05;;
26113;SDS011;13966;48.828;9.064;2023-06-14T00:33:40;8.43;;;5.07;;
26113;SDS011;13966;48.828;9.064;2023-06-14T00:36:06;7.00;;;5.25;;
26113;SDS011;13966;48.828;9.064;2023-06-14T00:38:32;8.40;;;5.38;;
26113;SDS011;13966;48.828;9.064;2023-06-14T00:40:58;9.68;;;5.05;;
26113;SDS011;13966;48.828;9.064;2023-06-14T00:43:24;8.73;;;5.03;;
26113;SDS011;13966;48.828;9.064;2023-06-14T00:45:50;7.28;;;5.30;;
26113;SDS011;13966;48.828;9.064;2023-06-14T00:48:16;9.95;;;5.32;;
26113;SDS011;13966;48.828;9.064;2023-06-14T00:50:42;7.60;;;5.13;;
26113;SDS011;13966;48.828;9.064;2023-06-14T00:53:10;8.38;;;5.80;;
26113;SDS011;13966;48.828;9.064;2023-06-14T00:55:36;9.23;;;5.68;;
26113;SDS011;13966;48.828;9.064;2023-06-14T00:58:02;7.53;;;5.63;;
26113;SDS011;13966;48.828;9.064;2023-06-14T01:00:28;9.52;;;5.53;;
26113;SDS011;13966;48.828;9.064;2023-06-14T01:02:54;10.18;;;6.03;;
26113;SDS011;13966;48.828;9.064;2023-06-14T01:05:21;10.52;;;5.57;;
26113;SDS011;13966;48.828;9.064;2023-06-14T01:13:01;11.75;;;5.72;;
26113;SDS011;13966;48.828;9.064;2023-06-14T01:15:29;9.80;;;5.47;;
26113;SDS011;13966;48.828;9.064;2023-06-14T01:17:56;9.80;;;5.85;;
26113;SDS011;13966;48.828;9.064;2023-06-14T01:20:28;8.85;;;5.57;;
26113;SDS011;13966;48.828;9.064;2023-06-14T01:22:54;9.38;;;5.78;;
26113;SDS011;13966;48.828;9.064;2023-06-14T01:25:21;10.65;;;6.13;;
26113;SDS011;13966;48.828;9.064;2023-06-14T01:28:08;10.82;;;5.90;;
26113;SDS011;13966;48.828;9.064;2023-06-14T01:30:36;9.30;;;5.75;;
26113;SDS011;13966;48.828;9.064;2023-06-14T01:33:03;9.68;;;6.00;;
26113;SDS011;13966;48.828;9.064;2023-06-14T01:35:30;8.57;;;6.22;;
26113;SDS011;13966;48.828;9.064;2023-06-14T01:37:56;8.98;;;5.65;;
26113;SDS011;13966;48.828;9.064;2023-06-14T01:40:23;10.48;;;6.18;;
26113;SDS011;13966;48.828;9.064;2023-06-14T01:42:49;10.73;;;5.45;;
26113;SDS011;13966;48.828;9.064;2023-06-14T01:45:16;10.35;;;5.47;;
26113;SDS011;13966;48.828;9.064;2023-06-14T01:47:43;8.35;;;5.20;;
26113;SDS011;13966;48.828;9.064;2023-06-14T01:50:09;10.05;;;6.50;;
26113;SDS011;13966;48.828;9.064;2023-06-14T01:52:36;8.02;;;5.88;;
26113;SDS011;13966;48.828;9.064;2023-06-14T01:55:03;9.00;;;5.97;;
26113;SDS011;13966;48.828;9.064;2023-06-14T01:57:29;9.10;;;5.38;;
26113;SDS011;13966;48.828;9.064;2023-06-14T01:59:55;9.30;;;6.00;;
26113;SDS011;13966;48.828;9.064;2023-06-14T02:02:21;7.97;;;5.70;;
26113;SDS011;13966;48.828;9.064;2023-06-14T02:04:47;10.10;;;6.07;;
26113;SDS011;13966;48.828;9.064;2023-06-14T02:07:13;12.65;;;6.35;;
26113;SDS011;13966;48.828;9.064;2023-06-14T02:09:43;12.35;;;6.15;;
26113;SDS011;13966;48.828;9.064;2023-06-14T02:12:09;7.05;;;5.65;;
26113;SDS011;13966;48.828;9.064;2023-06-14T02:14:35;8.23;;;5.13;;
26113;SDS011;13966;48.828;9.064;2023-06-14T02:17:03;7.97;;;5.53;;
26113;SDS011;13966;48.828;9.064;2023-06-14T02:19:29;5.95;;;5.18;;
26113;SDS011;13966;48.828;9.064;2023-06-14T02:21:56;9.85;;;5.35;;
26113;SDS011;13966;48.828;9.064;2023-06-14T02:24:21;5.60;;;4.72;;
26113;SDS011;13966;48.828;9.064;2023-06-14T02:26:48;9.40;;;6.15;;
26113;SDS011;13966;48.828;9.064;2023-06-14T02:29:15;11.63;;;6.28;;
26113;SDS011;13966;48.828;9.064;2023-06-14T02:31:41;7.65;;;5.43;;
26113;SDS011;13966;48.828;9.064;2023-06-14T02:34:07;7.57;;;5.30;;
26113;SDS011;13966;48.828;9.064;2023-06-14T02:36:35;7.85;;;5.65;;
26113;SDS011;13966;48.828;9.064;2023-06-14T02:39:06;10.40;;;5.70;;
26113;SDS011;13966;48.828;9.064;2023-06-14T02:41:32;10.32;;;5.93;;
26113;SDS011;13966;48.828;9.064;2023-06-14T02:43:58;9.30;;;5.85;;
26113;SDS011;13966;48.828;9.064;2023-06-14T02:46:24;10.73;;;5.70;;
26113;SDS011;13966;48.828;9.064;2023-06-14T02:48:50;8.70;;;5.57;;
26113;SDS011;13966;48.828;9.064;2023-06-14T02:51:16;10.95;;;6.10;;
26113;SDS011;13966;48.828;9.064;2023-06-14T02:53:42;8.88;;;6.22;;
26113;SDS011;13966;48.828;9.064;2023-06-14T02:56:09;11.55;;;5.90;;
26113;SDS011;13966;48.828;9.064;2023-06-14T02:58:38;9.63;;;5.63;;
26113;SDS011;13966;48.828;9.064;2023-06-14T03:01:05;10.07;;;6.10;;
26113;SDS011;13966;48.828;9.064;2023-06-14T03:03:32;8.75;;;5.80;;
26113;SDS011;13966;48.828;9.064;2023-06-14T03:05:59;9.57;;;5.53;;
26113;SDS011;13966;48.828;9.064;2023-06-14T03:08:30;10.70;;;6.13;;
26113;SDS011;13966;48.828;9.064;2023-06-14T03:11:03;8.48;;;5.80;;
26113;SDS011;13966;48.828;9.064;2023-06-14T03:13:30;11.48;;;5.80;;
26113;SDS011;13966;48.828;9.064;2023-06-14T03:15:59;10.90;;;6.18;;
26113;SDS011;13966;48.828;9.064;2023-06-14T03:18:27;9.75;;;6.20;;
26113;SDS011;13966;48.828;9.064;2023-06-14T03:20:54;10.00;;;6.88;;
26113;SDS011;13966;48.828;9.064;2023-06-14T03:23:22;10.25;;;6.80;;
26113;SDS011;13966;48.828;9.064;2023-06-14T03:25:48;9.07;;;5.85;;
26113;SDS011;13966;48.828;9.064;2023-06-14T03:28:14;10.25;;;5.88;;
26113;SDS011;13966;48.828;9.064;2023-06-14T03:30:40;9.10;;;5.80;;
26113;SDS011;13966;48.828;9.064;2023-06-14T03:33:06;10.43;;;6.65;;
26113;SDS011;13966;48.828;9.064;2023-06-14T03:35:33;9.18;;;6.32;;
26113;SDS011;13966;48.828;9.064;2023-06-14T03:38:00;8.75;;;6.60;;
26113;SDS011;13966;48.828;9.064;2023-06-14T03:40:27;9.77;;;6.38;;
26113;SDS011;13966;48.828;9.064;2023-06-14T03:42:54;10.82;;;7.38;;
26113;SDS011;13966;48.828;9.064;2023-06-14T03:45:20;10.57;;;6.47;;
26113;SDS011;13966;48.828;9.064;2023-06-14T03:47:47;8.68;;;6.38;;
26113;SDS011;13966;48.828;9.064;2023-06-14T03:50:13;9.43;;;6.40;;
26113;SDS011;13966;48.828;9.064;2023-06-14T03:52:40;11.38;;;6.50;;
26113;SDS011;13966;48.828;9.064;2023-06-14T03:55:08;9.20;;;5.53;;
26113;SDS011;13966;48.828;9.064;2023-06-14T03:57:35;8.70;;;6.20;;
26113;SDS011;13966;48.828;9.064;2023-06-14T04:00:01;10.95;;;6.35;;
26113;SDS011;13966;48.828;9.064;2023-06-14T04:02:30;11.13;;;6.45;;
26113;SDS011;13966;48.828;9.064;2023-06-14T04:04:56;12.77;;;6.80;;
26113;SDS011;13966;48.828;9.064;2023-06-14T04:07:22;10.07;;;6.90;;
26113;SDS011;13966;48.828;9.064;2023-06-14T04:09:48;12.02;;;6.18;;
26113;SDS011;13966;48.828;9.064;2023-06-14T04:12:14;13.95;;;6.60;;
26113;SDS011;13966;48.828;9.064;2023-06-14T04:14:40;11.85;;;6.40;;
26113;SDS011;13966;48.828;9.064;2023-06-14T04:17:06;12.15;;;6.25;;
26113;SDS011;13966;48.828;9.064;2023-06-14T04:19:32;9.20;;;6.05;;
26113;SDS011;13966;48.828;9.064;2023-06-14T04:21:59;13.02;;;6.45;;
26113;SDS011;13966;48.828;9.064;2023-06-14T04:24:28;14.18;;;8.32;;
26113;SDS011;13966;48.828;9.064;2023-06-14T04:26:57;10.43;;;7.82;;
26113;SDS011;13966;48.828;9.064;2023-06-14T04:29:23;10.70;;;6.43;;
26113;SDS011;13966;48.828;9.064;2023-06-14T04:31:51;7.75;;;5.90;;
26113;SDS011;13966;48.828;9.064;2023-06-14T04:34:18;10.25;;;6.25;;
26113;SDS011;13966;48.828;9.064;2023-06-14T04:36:44;10.13;;;6.10;;
26113;SDS011;13966;48.828;9.064;2023-06-14T04:39:17;9.82;;;5.97;;
26113;SDS011;13966;48.828;9.064;2023-06-14T04:41:43;16.55;;;6.30;;
26113;SDS011;13966;48.828;9.064;2023-06-14T04:44:09;10.05;;;6.07;;
26113;SDS011;13966;48.828;9.064;2023-06-14T04:46:36;9.68;;;6.40;;
26113;SDS011;13966;48.828;9.064;2023-06-14T04:49:10;8.57;;;5.90;;
26113;SDS011;13966;48.828;9.064;2023-06-14T04:51:39;10.93;;;6.53;;
26113;SDS011;13966;48.828;9.064;2023-06-14T04:54:06;8.70;;;5.78;;
26113;SDS011;13966;48.828;9.064;2023-06-14T04:56:34;9.55;;;5.70;;
26113;SDS011;13966;48.828;9.064;2023-06-14T04:59:02;10.63;;;6.97;;
26113;SDS011;13966;48.828;9.064;2023-06-14T05:01:30;7.40;;;5.63;;
26113;SDS011;13966;48.828;9.064;2023-06-14T05:03:57;10.35;;;6.85;;
26113;SDS011;13966;48.828;9.064;2023-06-14T05:06:23;10.43;;;6.28;;
26113;SDS011;13966;48.828;9.064;2023-06-14T05:08:49;8.50;;;6.07;;
26113;SDS011;13966;48.828;9.064;2023-06-14T05:11:15;11.27;;;5.65;;
26113;SDS011;13966;48.828;9.064;2023-06-14T05:13:45;10.80;;;5.80;;
26113;SDS011;13966;48.828;9.064;2023-06-14T05:16:11;10.15;;;5.97;;
26113;SDS011;13966;48.828;9.064;2023-06-14T05:18:37;12.35;;;5.82;;
26113;SDS011;13966;48.828;9.064;2023-06-14T05:21:05;9.43;;;5.70;;
26113;SDS011;13966;48.828;9.064;2023-06-14T05:23:31;10.20;;;6.05;;
26113;SDS011;13966;48.828;9.064;2023-06-14T05:25:57;7.63;;;5.85;;
26113;SDS011;13966;48.828;9.064;2023-06-14T05:28:23;19.75;;;6.13;;
26113;SDS011;13966;48.828;9.064;2023-06-14T05:30:50;18.08;;;5.90;;
26113;SDS011;13966;48.828;9.064;2023-06-14T05:33:16;11.25;;;5.57;;
26113;SDS011;13966;48.828;9.064;2023-06-14T05:35:42;8.68;;;5.70;;
26113;SDS011;13966;48.828;9.064;2023-06-14T05:38:08;8.77;;;5.95;;
26113;SDS011;13966;48.828;9.064;2023-06-14T05:40:34;9.35;;;5.70;;
26113;SDS011;13966;48.828;9.064;2023-06-14T05:43:00;12.10;;;5.85;;
26113;SDS011;13966;48.828;9.064;2023-06-14T05:45:26;7.82;;;5.70;;
26113;SDS011;13966;48.828;9.064;2023-06-14T05:47:52;9.45;;;5.47;;
26113;SDS011;13966;48.828;9.064;2023-06-14T05:50:19;5.85;;;4.55;;
26113;SDS011;13966;48.828;9.064;2023-06-14T05:52:46;7.63;;;5.05;;
26113;SDS011;13966;48.828;9.064;2023-06-14T05:55:12;8.43;;;5.22;;
26113;SDS011;13966;48.828;9.064;2023-06-14T05:57:38;10.57;;;5.20;;
26113;SDS011;13966;48.828;9.064;2023-06-14T06:00:04;7.18;;;5.90;;
26113;SDS011;13966;48.828;9.064;2023-06-14T06:02:39;10.40;;;6.18;;
26113;SDS011;13966;48.828;9.064;2023-06-14T06:05:07;9.40;;;5.63;;
26113;SDS011;13966;48.828;9.064;2023-06-14T06:07:33;9.15;;;5.40;;
26113;SDS011;13966;48.828;9.064;2023-06-14T06:09:59;7.75;;;5.30;;
26113;SDS011;13966;48.828;9.064;2023-06-14T06:12:25;10.40;;;5.45;;
26113;SDS011;13966;48.828;9.064;2023-06-14T06:14:51;8.73;;;5.90;;
26113;SDS011;13966;48.828;9.064;2023-06-14T06:17:17;6.60;;;5.10;;
26113;SDS011;13966;48.828;9.064;2023-06-14T06:19:44;10.80;;;5.95;;
26113;SDS011;13966;48.828;9.064;2023-06-14T06:22:10;9.90;;;5.65;;
26113;SDS011;13966;48.828;9.064;2023-06-14T06:24:37;6.18;;;5.03;;
26113;SDS011;13966;48.828;9.064;2023-06-14T06:27:03;9.38;;;5.35;;
26113;SDS011;13966;48.828;9.064;2023-06-14T06:29:29;8.57;;;5.22;;
26113;SDS011;13966;48.828;9.064;2023-06-14T06:31:55;6.95;;;4.95;;
26113;SDS011;13966;48.828;9.064;2023-06-14T06:34:21;11.73;;;5.10;;
26113;SDS011;13966;48.828;9.064;2023-06-14T06:36:47;10.73;;;5.15;;
26113;SDS011;13966;48.828;9.064;2023-06-14T06:39:14;7.43;;;4.97;;
26113;SDS011;13966;48.828;9.064;2023-06-14T06:41:40;8.55;;;4.65;;
26113;SDS011;13966;48.828;9.064;2023-06-14T06:44:06;10.82;;;4.80;;
26113;SDS011;13966;48.828;9.064;2023-06-14T06:46:33;7.25;;;4.70;;
26113;SDS011;13966;48.828;9.064;2023-06-14T06:49:00;13.18;;;5.55;;
26113;SDS011;13966;48.828;9.064;2023-06-14T06:51:26;10.70;;;5.50;;
26113;SDS011;13966;48.828;9.064;2023-06-14T06:53:53;13.75;;;5.22;;
26113;SDS011;13966;48.828;9.064;2023-06-14T06:56:19;11.02;;;4.78;;
26113;SDS011;13966;48.828;9.064;2023-06-14T06:58:45;20.08;;;5.85;;
26113;SDS011;13966;48.828;9.064;2023-06-14T07:01:11;9.35;;;5.10;;
26113;SDS011;13966;48.828;9.064;2023-06-14T07:03:38;8.00;;;4.50;;
26113;SDS011;13966;48.828;9.064;2023-06-14T07:06:04;8.63;;;4.75;;
26113;SDS011;13966;48.828;9.064;2023-06-14T07:08:30;8.55;;;4.85;;
26113;SDS011;13966;48.828;9.064;2023-06-14T07:10:56;7.68;;;4.60;;
26113;SDS011;13966;48.828;9.064;2023-06-14T07:13:22;7.53;;;4.43;;
26113;SDS011;13966;48.828;9.064;2023-06-14T07:15:48;10.18;;;4.55;;
26113;SDS011;13966;48.828;9.064;2023-06-14T07:18:15;5.63;;;4.53;;
26113;SDS011;13966;48.828;9.064;2023-06-14T07:20:41;11.95;;;4.80;;
26113;SDS011;13966;48.828;9.064;2023-06-14T07:23:08;10.40;;;4.65;;
26113;SDS011;13966;48.828;9.064;2023-06-14T07:25:34;9.70;;;4.60;;
26113;SDS011;13966;48.828;9.064;2023-06-14T07:28:00;5.25;;;4.38;;
26113;SDS011;13966;48.828;9.064;2023-06-14T07:30:26;7.20;;;4.90;;
26113;SDS011;13966;48.828;9.064;2023-06-14T07:32:54;8.48;;;5.13;;
26113;SDS011;13966;48.828;9.064;2023-06-14T07:35:20;7.13;;;4.03;;
26113;SDS011;13966;48.828;9.064;2023-06-14T07:37:47;8.30;;;4.50;;
26113;SDS011;13966;48.828;9.064;2023-06-14T07:40:13;8.95;;;4.57;;
26113;SDS011;13966;48.828;9.064;2023-06-14T07:42:39;10.20;;;4.53;;
26113;SDS011;13966;48.828;9.064;2023-06-14T07:45:05;7.68;;;4.07;;
26113;SDS011;13966;48.828;9.064;2023-06-14T07:47:32;7.80;;;4.35;;
26113;SDS011;13966;48.828;9.064;2023-06-14T07:49:58;7.22;;;4.63;;
26113;SDS011;13966;48.828;9.064;2023-06-14T07:52:24;8.25;;;4.60;;
26113;SDS011;13966;48.828;9.064;2023-06-14T07:54:50;7.38;;;4.35;;
26113;SDS011;13966;48.828;9.064;2023-06-14T07:57:16;4.93;;;3.83;;
26113;SDS011;13966;48.828;9.064;2023-06-14T07:59:45;7.28;;;4.20;;
26113;SDS011;13966;48.828;9.064;2023-06-14T08:02:10;5.30;;;4.20;;
26113;SDS011;13966;48.828;9.064;2023-06-14T08:04:36;8.82;;;4.10;;
26113;SDS011;13966;48.828;9.064;2023-06-14T08:07:03;9.15;;;4.28;;
26113;SDS011;13966;48.828;9.064;2023-06-14T08:09:29;4.78;;;3.90;;
26113;SDS011;13966;48.828;9.064;2023-06-14T08:11:55;8.10;;;4.47;;
26113;SDS011;13966;48.828;9.064;2023-06-14T08:14:21;8.25;;;4.05;;
26113;SDS011;13966;48.828;9.064;2023-06-14T08:16:48;7.68;;;4.30;;
26113;SDS011;13966;48.828;9.064;2023-06-14T08:19:14;6.32;;;3.97;;
26113;SDS011;13966;48.828;9.064;2023-06-14T08:21:41;7.43;;;3.75;;
26113;SDS011;13966;48.828;9.064;2023-06-14T08:24:08;8.02;;;4.60;;
26113;SDS011;13966;48.828;9.064;2023-06-14T08:26:35;9.05;;;4.72;;
26113;SDS011;13966;48.828;9.064;2023-06-14T08:29:01;10.07;;;4.05;;
26113;SDS011;13966;48.828;9.064;2023-06-14T08:31:27;8.20;;;4.07;;
26113;SDS011;13966;48.828;9.064;2023-06-14T08:33:53;7.22;;;4.20;;
26113;SDS011;13966;48.828;9.064;2023-06-14T08:36:19;5.68;;;4.20;;
26113;SDS011;13966;48.828;9.064;2023-06-14T08:38:47;7.05;;;3.88;;
26113;SDS011;13966;48.828;9.064;2023-06-14T08:41:13;5.85;;;4.28;;
26113;SDS011;13966;48.828;9.064;2023-06-14T08:43:46;6.05;;;4.00;;
26113;SDS011;13966;48.828;9.064;2023-06-14T08:46:12;7.18;;;4.38;;
26113;SDS011;13966;48.828;9.064;2023-06-14T08:48:41;6.00;;;4.10;;
26113;SDS011;13966;48.828;9.064;2023-06-14T08:51:08;8.13;;;3.67;;
26113;SDS011;13966;48.828;9.064;2023-06-14T08:53:35;9.55;;;4.53;;
26113;SDS011;13966;48.828;9.064;2023-06-14T08:56:07;10.95;;;4.07;;
26113;SDS011;13966;48.828;9.064;2023-06-14T08:58:38;8.32;;;4.43;;
26113;SDS011;13966;48.828;9.064;2023-06-14T09:01:08;7.78;;;3.95;;
26113;SDS011;13966;48.828;9.064;2023-06-14T09:03:37;10.57;;;4.07;;
26113;SDS011;13966;48.828;9.064;2023-06-14T09:06:05;6.43;;;4.28;;
26113;SDS011;13966;48.828;9.064;2023-06-14T09:08:33;9.77;;;4.28;;
26113;SDS011;13966;48.828;9.064;2023-06-14T09:11:01;9.32;;;4.40;;
26113;SDS011;13966;48.828;9.064;2023-06-14T09:13:27;7.82;;;4.00;;
26113;SDS011;13966;48.828;9.064;2023-06-14T09:15:56;6.75;;;3.97;;
26113;SDS011;13966;48.828;9.064;2023-06-14T09:18:22;9.73;;;4.10;;
26113;SDS011;13966;48.828;9.064;2023-06-14T09:20:59;5.40;;;3.50;;
26113;SDS011;13966;48.828;9.064;2023-06-14T09:23:25;12.25;;;4.57;;
26113;SDS011;13966;48.828;9.064;2023-06-14T09:25:51;9.23;;;3.72;;
26113;SDS011;13966;48.828;9.064;2023-06-14T09:28:17;7.93;;;4.25;;
26113;SDS011;13966;48.828;9.064;2023-06-14T09:30:45;7.47;;;4.28;;
26113;SDS011;13966;48.828;9.064;2023-06-14T09:33:16;5.57;;;4.00;;
26113;SDS011;13966;48.828;9.064;2023-06-14T09:35:44;6.38;;;3.95;;
26113;SDS011;13966;48.828;9.064;2023-06-14T09:38:10;6.93;;;3.97;;
26113;SDS011;13966;48.828;9.064;2023-06-14T09:40:36;5.70;;;3.70;;
26113;SDS011;13966;48.828;9.064;2023-06-14T09:43:06;5.95;;;3.75;;
26113;SDS011;13966;48.828;9.064;2023-06-14T09:45:34;6.03;;;4.00;;
26113;SDS011;13966;48.828;9.064;2023-06-14T09:48:00;7.82;;;3.80;;
26113;SDS011;13966;48.828;9.064;2023-06-14T09:50:26;8.23;;;3.85;;
26113;SDS011;13966;48.828;9.064;2023-06-14T09:52:52;9.05;;;4.55;;
26113;SDS011;13966;48.828;9.064;2023-06-14T09:55:22;6.85;;;3.50;;
26113;SDS011;13966;48.828;9.064;2023-06-14T09:57:48;5.85;;;3.78;;
26113;SDS011;13966;48.828;9.064;2023-06-14T10:00:15;6.53;;;3.42;;
26113;SDS011;13966;48.828;9.064;2023-06-14T10:02:43;4.68;;;3.53;;
26113;SDS011;13966;48.828;9.064;2023-06-14T10:05:14;4.32;;;3.38;;
26113;SDS011;13966;48.828;9.064;2023-06-14T10:07:52;5.30;;;3.67;;
26113;SDS011;13966;48.828;9.064;2023-06-14T10:10:19;4.85;;;3.50;;
26113;SDS011;13966;48.828;9.064;2023-06-14T10:12:45;5.60;;;3.38;;
26113;SDS011;13966;48.828;9.064;2023-06-14T10:15:15;5.60;;;3.50;;
26113;SDS011;13966;48.828;9.064;2023-06-14T10:20:26;6.22;;;3.47;;
26113;SDS011;13966;48.828;9.064;2023-06-14T10:23:02;7.75;;;3.13;;
26113;SDS011;13966;48.828;9.064;2023-06-14T10:25:30;9.70;;;3.60;;
26113;SDS011;13966;48.828;9.064;2023-06-14T10:28:03;5.50;;;3.13;;
26113;SDS011;13966;48.828;9.064;2023-06-14T10:30:29;9.40;;;3.20;;
26113;SDS011;13966;48.828;9.064;2023-06-14T10:33:04;6.60;;;3.25;;
26113;SDS011;13966;48.828;9.064;2023-06-14T10:35:31;8.93;;;3.58;;
26113;SDS011;13966;48.828;9.064;2023-06-14T10:38:07;6.72;;;3.22;;
26113;SDS011;13966;48.828;9.064;2023-06-14T10:40:33;5.10;;;2.95;;
26113;SDS011;13966;48.828;9.064;2023-06-14T10:43:00;3.63;;;2.78;;
26113;SDS011;13966;48.828;9.064;2023-06-14T10:45:26;7.10;;;3.30;;
26113;SDS011;13966;48.828;9.064;2023-06-14T10:47:52;6.88;;;3.13;;
26113;SDS011;13966;48.828;9.064;2023-06-14T10:50:22;4.97;;;3.03;;
26113;SDS011;13966;48.828;9.064;2023-06-14T10:52:53;7.22;;;3.35;;
26113;SDS011;13966;48.828;9.064;2023-06-14T10:55:19;3.80;;;2.72;;
26113;SDS011;13966;48.828;9.064;2023-06-14T10:57:51;11.85;;;3.13;;
26113;SDS011;13966;48.828;9.064;2023-06-14T11:00:25;4.30;;;2.88;;
26113;SDS011;13966;48.828;9.064;2023-06-14T11:05:23;6.15;;;3.15;;
26113;SDS011;13966;48.828;9.064;2023-06-14T11:10:40;7.05;;;2.83;;
26113;SDS011;13966;48.828;9.064;2023-06-14T11:13:06;7.20;;;3.10;;
26113;SDS011;13966;48.828;9.064;2023-06-14T11:15:33;5.20;;;2.75;;
26113;SDS011;13966;48.828;9.064;2023-06-14T11:18:00;4.28;;;2.80;;
26113;SDS011;13966;48.828;9.064;2023-06-14T11:20:29;6.32;;;2.80;;
26113;SDS011;13966;48.828;9.064;2023-06-14T11:22:55;3.38;;;2.78;;
26113;SDS011;13966;48.828;9.064;2023-06-14T11:25:21;5.72;;;2.95;;
26113;SDS011;13966;48.828;9.064;2023-06-14T11:27:49;9.15;;;2.78;;
26113;SDS011;13966;48.828;9.064;2023-06-14T11:30:15;7.43;;;2.97;;
26113;SDS011;13966;48.828;9.064;2023-06-14T11:32:41;3.63;;;2.65;;
26113;SDS011;13966;48.828;9.064;2023-06-14T11:35:08;7.53;;;2.85;;
26113;SDS011;13966;48.828;9.064;2023-06-14T11:37:35;5.53;;;2.85;;
26113;SDS011;13966;48.828;9.064;2023-06-14T11:42:33;4.18;;;2.50;;
26113;SDS011;13966;48.828;9.064;2023-06-14T11:44:59;4.60;;;2.70;;
26113;SDS011;13966;48.828;9.064;2023-06-14T11:47:33;5.75;;;2.50;;
26113;SDS011;13966;48.828;9.064;2023-06-14T11:49:59;6.68;;;2.55;;
26113;SDS011;13966;48.828;9.064;2023-06-14T11:52:26;4.68;;;2.30;;
26113;SDS011;13966;48.828;9.064;2023-06-14T11:54:52;4.55;;;2.00;;
26113;SDS011;13966;48.828;9.064;2023-06-14T11:57:18;9.52;;;2.33;;
26113;SDS011;13966;48.828;9.064;2023-06-14T11:59:45;4.68;;;1.83;;
26113;SDS011;13966;48.828;9.064;2023-06-14T12:02:14;5.55;;;2.17;;
26113;SDS011;13966;48.828;9.064;2023-06-14T12:04:41;3.80;;;1.98;;
26113;SDS011;13966;48.828;9.064;2023-06-14T12:07:14;4.50;;;2.00;;
26113;SDS011;13966;48.828;9.064;2023-06-14T12:09:42;5.30;;;1.95;;
26113;SDS011;13966;48.828;9.064;2023-06-14T12:12:09;5.30;;;1.70;;
26113;SDS011;13966;48.828;9.064;2023-06-14T12:14:36;2.67;;;1.52;;
26113;SDS011;13966;48.828;9.064;2023-06-14T12:17:05;5.65;;;1.83;;
26113;SDS011;13966;48.828;9.064;2023-06-14T12:19:31;4.18;;;2.05;;
26113;SDS011;13966;48.828;9.064;2023-06-14T12:22:00;6.38;;;1.88;;
26113;SDS011;13966;48.828;9.064;2023-06-14T12:24:30;3.03;;;1.80;;
26113;SDS011;13966;48.828;9.064;2023-06-14T12:26:59;4.13;;;1.60;;
26113;SDS011;13966;48.828;9.064;2023-06-14T12:29:25;4.97;;;1.88;;
26113;SDS011;13966;48.828;9.064;2023-06-14T12:31:51;4.32;;;1.80;;
26113;SDS011;13966;48.828;9.064;2023-06-14T12:34:19;4.70;;;1.80;;
26113;SDS011;13966;48.828;9.064;2023-06-14T12:36:45;3.58;;;1.80;;
26113;SDS011;13966;48.828;9.064;2023-06-14T12:39:12;6.78;;;1.70;;
26113;SDS011;13966;48.828;9.064;2023-06-14T12:41:38;4.30;;;1.50;;
26113;SDS011;13966;48.828;9.064;2023-06-14T12:44:06;4.10;;;1.70;;
26113;SDS011;13966;48.828;9.064;2023-06-14T12:46:33;2.35;;;1.55;;
26113;SDS011;13966;48.828;9.064;2023-06-14T12:49:00;3.33;;;1.63;;
26113;SDS011;13966;48.828;9.064;2023-06-14T12:51:26;4.05;;;1.23;;
26113;SDS011;13966;48.828;9.064;2023-06-14T12:53:52;2.67;;;1.60;;
26113;SDS011;13966;48.828;9.064;2023-06-14T12:56:18;2.47;;;1.63;;
26113;SDS011;13966;48.828;9.064;2023-06-14T12:58:44;2.22;;;1.50;;
26113;SDS011;13966;48.828;9.064;2023-06-14T13:01:10;5.22;;;1.60;;
26113;SDS011;13966;48.828;9.064;2023-06-14T13:03:36;12.10;;;1.92;;
26113;SDS011;13966;48.828;9.064;2023-06-14T13:06:02;1.88;;;1.48;;
26113;SDS011;13966;48.828;9.064;2023-06-14T13:08:29;1.67;;;1.58;;
26113;SDS011;13966;48.828;9.064;2023-06-14T13:10:56;4.13;;;1.48;;
26113;SDS011;13966;48.828;9.064;2023-06-14T13:13:22;3.47;;;1.40;;
26113;SDS011;13966;48.828;9.064;2023-06-14T13:15:48;3.38;;;1.35;;
26113;SDS011;13966;48.828;9.064;2023-06-14T13:18:15;3.05;;;1.60;;
26113;SDS011;13966;48.828;9.064;2023-06-14T13:20:42;5.07;;;1.40;;
26113;SDS011;13966;48.828;9.064;2023-06-14T13:23:08;5.07;;;1.65;;
26113;SDS011;13966;48.828;9.064;2023-06-14T13:25:36;5.43;;;1.73;;
26113;SDS011;13966;48.828;9.064;2023-06-14T13:28:03;2.65;;;1.73;;
26113;SDS011;13966;48.828;9.064;2023-06-14T13:30:29;2.92;;;1.67;;
26113;SDS011;13966;48.828;9.064;2023-06-14T13:32:56;3.05;;;1.60;;
26113;SDS011;13966;48.828;9.064;2023-06-14T13:35:22;4.10;;;1.73;;
26113;SDS011;13966;48.828;9.064;2023-06-14T13:37:48;3.67;;;2.10;;
26113;SDS011;13966;48.828;9.064;2023-06-14T13:40:14;2.50;;;1.60;;
26113;SDS011;13966;48.828;9.064;2023-06-14T13:42:40;4.35;;;1.90;;
26113;SDS011;13966;48.828;9.064;2023-06-14T13:45:07;4.13;;;1.95;;
26113;SDS011;13966;48.828;9.064;2023-06-14T13:47:33;3.17;;;1.45;;
26113;SDS011;13966;48.828;9.064;2023-06-14T13:49:59;3.33;;;1.75;;
26113;SDS011;13966;48.828;9.064;2023-06-14T13:52:25;7.03;;;1.90;;
26113;SDS011;13966;48.828;9.064;2023-06-14T13:54:52;2.58;;;1.42;;
26113;SDS011;13966;48.828;9.064;2023-06-14T13:57:18;3.70;;;1.50;;
26113;SDS011;13966;48.828;9.064;2023-06-14T13:59:44;4.68;;;1.70;;
26113;SDS011;13966;48.828;9.064;2023-06-14T14:02:10;2.30;;;1.50;;
26113;SDS011;13966;48.828;9.064;2023-06-14T14:04:36;4.15;;;1.38;;
26113;SDS011;13966;48.828;9.064;2023-06-14T14:07:03;6.65;;;1.88;;
26113;SDS011;13966;48.828;9.064;2023-06-14T14:09:30;1.42;;;1.27;;
26113;SDS011;13966;48.828;9.064;2023-06-14T14:11:57;4.20;;;1.50;;
26113;SDS011;13966;48.828;9.064;2023-06-14T14:14:23;5.78;;;1.67;;
26113;SDS011;13966;48.828;9.064;2023-06-14T14:16:49;3.33;;;1.52;;
26113;SDS011;13966;48.828;9.064;2023-06-14T14:19:19;11.27;;;1.50;;
26113;SDS011;13966;48.828;9.064;2023-06-14T14:21:46;4.07;;;1.40;;
26113;SDS011;13966;48.828;9.064;2023-06-14T14:24:12;2.53;;;1.60;;
26113;SDS011;13966;48.828;9.064;2023-06-14T14:26:38;2.03;;;1.25;;
26113;SDS011;13966;48.828;9.064;2023-06-14T14:29:04;7.22;;;1.85;;
26113;SDS011;13966;48.828;9.064;2023-06-14T14:31:30;5.55;;;1.77;;
26113;SDS011;13966;48.828;9.064;2023-06-14T14:33:56;4.30;;;1.42;;
26113;SDS011;13966;48.828;9.064;2023-06-14T14:36:22;2.88;;;1.85;;
26113;SDS011;13966;48.828;9.064;2023-06-14T14:38:48;2.95;;;1.58;;
26113;SDS011;13966;48.828;9.064;2023-06-14T14:41:16;3.10;;;2.15;;
26113;SDS011;13966;48.828;9.064;2023-06-14T14:43:42;2.72;;;1.85;;
26113;SDS011;13966;48.828;9.064;2023-06-14T14:46:08;4.22;;;2.58;;
26113;SDS011;13966;48.828;9.064;2023-06-14T14:48:34;5.72;;;2.10;;
26113;SDS011;13966;48.828;9.064;2023-06-14T14:51:01;3.15;;;2.13;;
26113;SDS011;13966;48.828;9.064;2023-06-14T14:53:27;3.67;;;2.20;;
26113;SDS011;13966;48.828;9.064;2023-06-14T14:55:53;3.55;;;1.80;;
26113;SDS011;13966;48.828;9.064;2023-06-14T14:58:19;4.63;;;2.20;;
26113;SDS011;13966;48.828;9.064;2023-06-14T15:00:45;3.97;;;2.05;;